createdAt,value
2023-03-15T07:30:34.212Z,79.40
2023-03-15T07:45:36.950Z,79.70
2023-03-15T07:50:30.576Z,79.70
2023-03-15T07:55:24.179Z,79.80
2023-03-15T08:00:18.739Z,79.30
2023-03-15T08:05:14.866Z,79.00
2023-03-15T08:10:09.701Z,78.30
2023-03-15T08:15:03.248Z,77.60
2023-03-15T08:19:56.821Z,78.00
2023-03-15T08:24:53.595Z,78.70
2023-03-15T08:29:47.207Z,79.10
2023-03-15T08:34:40.842Z,80.40
2023-03-15T08:39:36.501Z,80.90
2023-03-15T08:44:31.858Z,81.00
2023-03-15T08:49:25.588Z,83.10
2023-03-15T08:54:19.204Z,81.90
2023-03-15T08:59:19.316Z,81.80
2023-03-15T09:04:17.389Z,80.40
2023-03-15T09:09:11.577Z,81.60
2023-03-15T09:14:05.119Z,80.90
2023-03-15T09:18:58.606Z,78.40
2023-03-15T09:23:53.513Z,75.80
2023-03-15T09:28:48.822Z,71.80
2023-03-15T09:33:46.907Z,67.60
2023-03-15T09:38:42.379Z,64.80
2023-03-15T09:43:58.861Z,65.50
2023-03-15T09:48:58.709Z,65.70
2023-03-15T09:53:58.858Z,64.50
2023-03-15T09:58:59.075Z,65.70
2023-03-15T10:03:53.786Z,64.80
2023-03-15T10:08:48.097Z,64.80
2023-03-15T10:13:57.351Z,64.50
2023-03-15T10:19:03.021Z,63.10
2023-03-15T10:23:56.601Z,61.70
2023-03-15T10:28:51.214Z,60.80
2023-03-15T10:33:48.452Z,59.20
2023-03-15T10:38:42.936Z,57.80
2023-03-15T10:43:38.272Z,56.90
2023-03-15T10:48:33.266Z,56.40
2023-03-15T10:53:28.374Z,54.40
2023-03-15T10:58:27.924Z,54.10
2023-03-15T11:03:23.515Z,53.10
2023-03-15T11:08:19.131Z,52.10
2023-03-15T11:13:20.724Z,51.80
2023-03-15T11:18:20.585Z,51.00
2023-03-15T11:23:18.374Z,50.80
2023-03-15T11:28:20.321Z,50.20
2023-03-15T11:33:33.739Z,50.10
2023-03-15T11:38:35.407Z,49.60
2023-03-15T11:43:41.607Z,47.70
2023-03-15T11:48:41.657Z,47.40
2023-03-15T11:53:40.374Z,46.70
2023-03-15T11:58:37.133Z,45.70
2023-03-15T12:03:36.404Z,45.30
2023-03-15T12:08:48.585Z,44.50
2023-03-15T12:19:03.880Z,45.70
2023-03-15T12:24:01.868Z,47.40
2023-03-15T12:29:07.240Z,46.00
2023-03-15T12:34:08.042Z,46.20
2023-03-15T12:39:20.889Z,47.20
2023-03-15T12:44:39.314Z,46.20
2023-03-15T12:49:41.247Z,45.60
2023-03-15T12:54:43.890Z,45.10
2023-03-15T12:59:44.420Z,45.50
2023-03-15T13:04:42.503Z,44.80
2023-03-15T13:10:01.372Z,42.60
2023-03-15T13:15:08.967Z,42.00
2023-03-15T13:20:23.282Z,40.30
2023-03-15T13:25:22.371Z,40.90
2023-03-15T13:30:33.440Z,40.00
2023-03-15T13:35:29.343Z,40.20
2023-03-15T13:40:23.077Z,41.60
2023-03-15T13:45:18.094Z,40.50
2023-03-15T13:50:16.526Z,39.90
2023-03-15T13:55:15.373Z,37.50
2023-03-15T14:00:17.947Z,38.30
2023-03-15T14:05:17.679Z,39.20
2023-03-15T14:10:26.769Z,39.30
2023-03-15T14:15:22.198Z,37.60
2023-03-15T14:20:17.990Z,34.80
2023-03-15T14:25:23.405Z,33.80
2023-03-15T14:30:23.029Z,34.10
2023-03-15T14:35:23.852Z,32.90
2023-03-15T14:40:22.719Z,31.80
2023-03-15T14:45:17.830Z,30.50
2023-03-15T14:50:15.391Z,29.40
2023-03-15T14:55:13.874Z,28.50
2023-03-15T15:00:15.365Z,27.80
2023-03-15T15:05:21.906Z,28.30
2023-03-15T15:10:16.197Z,27.30
2023-03-15T15:15:33.585Z,28.50
2023-03-15T15:20:51.830Z,28.60
2023-03-15T15:25:48.186Z,28.10
2023-03-15T15:30:45.562Z,26.80
2023-03-15T15:35:44.423Z,26.50
2023-03-15T15:40:39.751Z,26.90
2023-03-15T15:45:35.585Z,26.70
2023-03-15T15:50:33.998Z,27.80
2023-03-15T15:55:35.830Z,27.30
2023-03-15T16:00:30.576Z,27.90
2023-03-15T16:05:28.991Z,27.20
2023-03-15T16:10:30.530Z,28.60
2023-03-15T16:15:25.897Z,32.90
2023-03-15T16:20:22.349Z,33.90
2023-03-15T16:25:24.181Z,34.80
2023-03-15T16:30:23.444Z,35.60
2023-03-15T16:35:17.195Z,35.00
2023-03-15T16:40:19.065Z,36.30
2023-03-15T16:45:15.153Z,36.60
2023-03-15T16:50:11.255Z,36.40
2023-03-15T16:55:05.281Z,37.00
2023-03-15T16:59:58.920Z,38.10
2023-03-15T17:04:53.189Z,38.30
2023-03-15T17:09:49.690Z,38.60
2023-03-15T17:14:43.377Z,38.70
2023-03-15T17:19:37.438Z,39.50
2023-03-15T17:24:31.308Z,39.70
